Time;durP1;ratioP1;P1;durP2;ratioP2;P2;SDS_P1;SDS_P2;PMS_P1;PMS_P2;Temp;Humidity;BMP_temperature;BMP_pressure;BME280_temperature;BME280_humidity;BME280_pressure;Samples;Min_cycle;Max_cycle;Signal;HPM_P1;HPM_P2
2022/01/12 00:00:10;;;;;;;9.68;8.50;;;0.70;99.90;;;;;;4969824;28;20019;-64
2022/01/12 00:02:35;;;;;;;8.27;7.32;;;0.70;99.90;;;;;;4966608;28;20507;-63
2022/01/12 00:05:09;;;;;;;9.65;7.82;;;0.60;99.90;;;;;;4959779;28;20045;-63
2022/01/12 00:07:35;;;;;;;9.60;8.02;;;0.70;99.90;;;;;;4967810;28;20030;-63
2022/01/12 00:10:20;;;;;;;10.45;9.35;;;0.60;99.90;;;;;;4980862;28;20023;-64
2022/01/12 00:12:45;;;;;;;10.57;9.00;;;0.60;99.90;;;;;;4972230;28;20026;-63
2022/01/12 00:15:12;;;;;;;10.45;8.32;;;0.60;99.90;;;;;;4973638;28;20080;-64
2022/01/12 00:17:38;;;;;;;10.07;8.10;;;0.60;99.90;;;;;;4971187;28;20030;-63
2022/01/12 00:20:04;;;;;;;9.70;8.63;;;0.60;99.90;;;;;;4970108;28;20026;-64
2022/01/12 00:22:32;;;;;;;10.27;8.13;;;0.60;99.90;;;;;;4977595;28;20529;-64
2022/01/12 00:33:12;;;;;;;9.60;8.63;;;0.60;99.90;;;;;;4973791;28;20441;-64
2022/01/12 00:35:42;;;;;;;9.02;8.13;;;0.60;99.90;;;;;;4938449;28;20044;-63
2022/01/12 00:38:08;;;;;;;9.10;8.20;;;0.60;99.90;;;;;;4964069;28;20082;-63
2022/01/12 00:40:38;;;;;;;13.23;9.93;;;0.60;99.90;;;;;;4963311;28;20051;-63
2022/01/12 00:43:04;;;;;;;12.03;10.83;;;0.70;99.90;;;;;;4971620;28;20098;-63
2022/01/12 00:45:31;;;;;;;10.38;9.15;;;0.70;99.90;;;;;;4973972;28;20363;-64
2022/01/12 00:47:57;;;;;;;10.05;9.02;;;0.60;99.90;;;;;;4982662;28;20036;-64
2022/01/12 00:50:22;;;;;;;10.23;9.20;;;0.60;99.90;;;;;;4976279;28;20631;-63
2022/01/12 00:52:48;;;;;;;10.77;8.43;;;0.60;99.90;;;;;;4964305;28;20034;-63
2022/01/12 00:55:14;;;;;;;11.32;8.75;;;0.70;99.90;;;;;;4966981;28;20117;-64
2022/01/12 00:57:40;;;;;;;11.82;9.27;;;0.60;99.90;;;;;;4970284;28;20118;-64
2022/01/12 01:00:20;;;;;;;10.32;8.75;;;0.60;99.90;;;;;;4973179;28;20026;-64
2022/01/12 01:02:46;;;;;;;10.52;9.32;;;0.60;99.90;;;;;;4975326;28;20490;-63
2022/01/12 01:05:11;;;;;;;9.95;8.65;;;0.60;99.90;;;;;;4964456;28;20122;-64
2022/01/12 01:07:37;;;;;;;10.60;9.52;;;0.60;99.90;;;;;;4964270;28;20613;-63
2022/01/12 01:10:06;;;;;;;14.88;10.05;;;0.60;99.90;;;;;;4962663;28;20503;-64
2022/01/12 01:12:34;;;;;;;11.65;9.02;;;0.60;99.90;;;;;;4968471;28;20388;-64
2022/01/12 01:15:10;;;;;;;12.00;9.98;;;0.60;99.90;;;;;;4968490;28;20011;-64
2022/01/12 01:25:42;;;;;;;13.00;11.57;;;0.50;99.90;;;;;;4975167;28;20134;-64
2022/01/12 01:28:08;;;;;;;12.57;10.57;;;0.50;99.90;;;;;;4978926;28;20038;-63
2022/01/12 01:30:36;;;;;;;29.88;16.95;;;0.50;99.90;;;;;;4973932;28;20796;-63
2022/01/12 01:33:06;;;;;;;138.63;49.90;;;0.50;99.90;;;;;;4965760;28;20446;-63
2022/01/12 01:35:34;;;;;;;30.48;16.20;;;0.50;99.90;;;;;;4962109;28;20070;-63
2022/01/12 01:38:02;;;;;;;16.13;11.00;;;0.50;99.90;;;;;;4964266;28;20443;-63
2022/01/12 01:40:28;;;;;;;9.65;8.13;;;0.50;99.90;;;;;;4963235;28;20032;-63
2022/01/12 01:53:43;;;;;;;42.97;20.75;;;0.40;99.90;;;;;;4974935;28;20069;-63
2022/01/12 01:56:09;;;;;;;44.78;20.33;;;0.40;99.90;;;;;;4963603;28;20511;-63
2022/01/12 01:58:35;;;;;;;22.98;14.77;;;0.30;99.90;;;;;;4961494;28;20038;-63
2022/01/12 02:01:01;;;;;;;15.05;13.32;;;0.20;99.90;;;;;;4962312;28;20391;-63
2022/01/12 02:03:29;;;;;;;37.10;18.20;;;0.10;99.90;;;;;;4969750;28;20031;-63
2022/01/12 02:05:55;;;;;;;35.72;17.65;;;-0.10;99.90;;;;;;4975110;28;20042;-63
2022/01/12 02:08:21;;;;;;;142.48;47.70;;;-0.10;99.90;;;;;;4970275;28;20125;-63
2022/01/12 02:10:51;;;;;;;45.28;21.35;;;-0.20;99.90;;;;;;4946968;28;20110;-63
2022/01/12 02:13:17;;;;;;;26.92;16.08;;;-0.20;99.90;;;;;;4948070;28;20032;-64
2022/01/12 02:15:45;;;;;;;47.92;22.17;;;-0.20;99.90;;;;;;4968527;28;20536;-64
2022/01/12 02:18:34;;;;;;;20.38;13.90;;;-0.20;99.90;;;;;;4959645;28;20106;-64
2022/01/12 02:40:33;;;;;;;15.77;11.55;;;-0.10;99.90;;;;;;4965941;28;20029;-63
2022/01/12 02:53:39;;;;;;;18.92;13.02;;;-0.20;99.90;;;;;;4962194;28;20054;-64
2022/01/12 02:56:16;;;;;;;14.65;11.95;;;-0.20;99.90;;;;;;4973413;28;20031;-64
2022/01/12 02:58:44;;;;;;;15.15;13.13;;;-0.30;99.90;;;;;;4971059;28;20105;-64
2022/01/12 03:03:54;;;;;;;16.45;11.90;;;-0.30;99.90;;;;;;4959389;28;20036;-63
2022/01/12 03:06:25;;;;;;;16.58;11.90;;;-0.30;99.90;;;;;;4972837;28;20039;-64
2022/01/12 03:08:51;;;;;;;13.07;11.57;;;-0.30;99.90;;;;;;4963819;28;20031;-63
2022/01/12 03:11:18;;;;;;;16.42;12.50;;;-0.30;99.90;;;;;;4972978;28;20081;-63
2022/01/12 03:13:45;;;;;;;14.18;11.55;;;-0.30;99.90;;;;;;4965627;28;20027;-64
2022/01/12 03:16:16;;;;;;;17.90;11.98;;;-0.30;99.90;;;;;;4958409;28;20082;-64
2022/01/12 03:18:43;;;;;;;16.63;12.00;;;-0.30;99.90;;;;;;4966739;28;20031;-63
2022/01/12 03:21:09;;;;;;;17.65;12.00;;;-0.30;99.90;;;;;;4967146;28;20023;-63
2022/01/12 03:23:35;;;;;;;14.05;11.85;;;-0.30;99.90;;;;;;4963311;28;20047;-63
2022/01/12 03:26:02;;;;;;;13.30;10.93;;;-0.30;99.90;;;;;;4962384;28;20065;-63
2022/01/12 03:28:27;;;;;;;14.68;11.40;;;-0.20;99.90;;;;;;4965670;28;20406;-63
2022/01/12 03:30:58;;;;;;;13.48;11.10;;;-0.20;99.90;;;;;;4968333;28;20027;-63
2022/01/12 03:38:50;;;;;;;13.60;10.88;;;-0.10;99.90;;;;;;4974390;28;20026;-63
2022/01/12 03:41:16;;;;;;;23.05;14.93;;;-0.10;99.90;;;;;;4965861;28;20503;-63
2022/01/12 03:43:42;;;;;;;13.15;11.25;;;-0.10;99.90;;;;;;4968333;28;20440;-64
2022/01/12 03:46:09;;;;;;;13.88;11.38;;;-0.10;99.90;;;;;;4965516;28;20169;-64
2022/01/12 03:48:34;;;;;;;14.35;11.55;;;-0.10;99.90;;;;;;4966583;28;20046;-63
2022/01/12 03:51:00;;;;;;;12.63;10.73;;;-0.10;99.90;;;;;;4968350;28;20049;-64
2022/01/12 03:53:26;;;;;;;12.23;9.88;;;-0.10;99.90;;;;;;4968439;28;20387;-63
2022/01/12 03:55:52;;;;;;;13.20;10.80;;;-0.10;99.90;;;;;;4956280;28;20035;-64
2022/01/12 03:58:17;;;;;;;12.85;10.40;;;-0.10;99.90;;;;;;4960606;28;20986;-64
2022/01/12 04:00:43;;;;;;;12.82;10.90;;;-0.10;99.90;;;;;;4964860;28;20034;-64
2022/01/12 04:03:09;;;;;;;13.20;10.82;;;-0.10;99.90;;;;;;4972978;28;20022;-64
2022/01/12 04:08:21;;;;;;;15.02;10.50;;;-0.10;99.90;;;;;;4964643;28;20028;-63
2022/01/12 04:10:52;;;;;;;14.73;11.05;;;-0.10;99.90;;;;;;4985831;28;20039;-64
2022/01/12 04:13:19;;;;;;;14.55;10.40;;;-0.10;99.90;;;;;;4964529;28;20142;-63
2022/01/12 04:16:11;;;;;;;15.00;10.90;;;-0.10;99.90;;;;;;4972677;28;20057;-64
2022/01/12 04:18:36;;;;;;;12.52;10.45;;;-0.10;99.90;;;;;;4967548;28;20509;-64
2022/01/12 04:21:05;;;;;;;11.52;10.30;;;-0.10;99.90;;;;;;4966403;28;20034;-64
2022/01/12 04:23:31;;;;;;;13.85;12.05;;;0.00;99.90;;;;;;4968988;28;20894;-64
2022/01/12 04:25:59;;;;;;;13.25;10.70;;;0.00;99.90;;;;;;4965488;28;20023;-64
2022/01/12 04:28:27;;;;;;;13.18;11.38;;;0.00;99.90;;;;;;4965575;28;20398;-63
2022/01/12 04:30:55;;;;;;;12.13;10.07;;;0.00;99.90;;;;;;4962610;28;20038;-63
2022/01/12 04:33:22;;;;;;;13.48;10.55;;;0.00;99.90;;;;;;4963171;28;20031;-64
2022/01/12 04:35:52;;;;;;;11.18;9.98;;;0.00;99.90;;;;;;4970726;28;20034;-64
2022/01/12 04:38:20;;;;;;;12.37;10.43;;;0.00;99.90;;;;;;4965999;28;20036;-64
2022/01/12 04:40:47;;;;;;;12.65;10.50;;;0.00;99.90;;;;;;4972321;28;20027;-64
2022/01/12 04:43:13;;;;;;;14.60;10.60;;;0.00;99.90;;;;;;4971864;28;20038;-64
2022/01/12 04:45:58;;;;;;;13.18;10.45;;;0.10;99.90;;;;;;4963913;28;20027;-64
2022/01/12 04:50:54;;;;;;;19.50;12.32;;;0.10;99.90;;;;;;4968654;28;20069;-64
2022/01/12 04:53:20;;;;;;;16.13;11.73;;;0.10;99.90;;;;;;4966826;28;20195;-64
2022/01/12 04:55:48;;;;;;;13.15;10.60;;;0.20;99.90;;;;;;4972711;28;20049;-64
2022/01/12 04:58:14;;;;;;;15.13;11.10;;;0.20;99.90;;;;;;4968632;28;20043;-64
2022/01/12 05:00:42;;;;;;;13.05;10.88;;;0.20;99.90;;;;;;4966665;28;20041;-64
2022/01/12 05:13:51;;;;;;;14.45;10.60;;;0.30;99.90;;;;;;4976884;28;20080;-64
2022/01/12 05:16:17;;;;;;;13.05;11.02;;;0.30;99.90;;;;;;4967880;28;20508;-64
2022/01/12 05:18:45;;;;;;;12.27;9.98;;;0.30;99.90;;;;;;4969853;28;20110;-64
2022/01/12 05:21:11;;;;;;;12.27;10.23;;;0.40;99.90;;;;;;4965030;28;20483;-64
2022/01/12 05:23:37;;;;;;;12.75;11.15;;;0.40;99.90;;;;;;4966545;28;20054;-64
2022/01/12 05:26:04;;;;;;;14.60;10.27;;;0.40;99.90;;;;;;4967275;28;20490;-64
2022/01/12 05:28:30;;;;;;;12.70;9.90;;;0.40;99.90;;;;;;4969172;28;20032;-63
2022/01/12 05:30:56;;;;;;;10.40;9.00;;;0.40;99.90;;;;;;4965912;28;20550;-64
2022/01/12 05:33:24;;;;;;;14.07;10.73;;;0.40;99.90;;;;;;4960106;28;20126;-66
2022/01/12 05:35:50;;;;;;;14.02;10.55;;;0.40;99.90;;;;;;4969650;28;20488;-64
2022/01/12 05:38:16;;;;;;;12.68;10.75;;;0.40;99.90;;;;;;4967237;28;20034;-64
2022/01/12 05:40:46;;;;;;;12.43;10.00;;;0.50;99.90;;;;;;4989640;28;20093;-64
2022/01/12 05:43:20;;;;;;;16.02;10.50;;;0.40;99.90;;;;;;4981606;28;20517;-64
2022/01/12 05:45:46;;;;;;;14.20;10.65;;;0.40;99.90;;;;;;4970009;28;20037;-64
2022/01/12 05:50:40;;;;;;;15.38;11.38;;;0.40;99.90;;;;;;4970345;28;20146;-64
2022/01/12 05:53:07;;;;;;;15.65;10.98;;;0.30;99.90;;;;;;4974185;28;20126;-64
2022/01/12 05:55:33;;;;;;;12.40;10.73;;;0.30;99.90;;;;;;4966369;28;20035;-64
2022/01/12 05:57:59;;;;;;;15.40;11.02;;;0.30;99.90;;;;;;4970933;28;20031;-64
2022/01/12 06:00:28;;;;;;;15.05;11.75;;;0.30;99.90;;;;;;4968514;28;20050;-64
2022/01/12 06:02:54;;;;;;;11.80;10.38;;;0.20;99.90;;;;;;4962540;28;20028;-64
2022/01/12 06:05:21;;;;;;;14.68;11.48;;;0.20;99.90;;;;;;4964441;28;20117;-64
2022/01/12 06:07:48;;;;;;;13.40;12.07;;;0.10;99.90;;;;;;4964649;28;20035;-64
2022/01/12 06:10:16;;;;;;;15.73;11.48;;;0.00;99.90;;;;;;4958186;28;20027;-64
2022/01/12 06:12:42;;;;;;;17.80;13.13;;;0.00;99.90;;;;;;4959795;28;20636;-63
2022/01/12 06:15:08;;;;;;;15.48;12.15;;;-0.10;99.90;;;;;;4966162;28;20061;-65
2022/01/12 06:17:34;;;;;;;19.42;12.95;;;-0.20;99.90;;;;;;4977394;28;20027;-64
2022/01/12 06:20:02;;;;;;;22.17;13.35;;;-0.20;99.90;;;;;;4971253;28;20027;-65
2022/01/12 06:22:28;;;;;;;18.35;13.95;;;-0.30;99.90;;;;;;4967076;28;20528;-64
2022/01/12 06:25:15;;;;;;;17.75;11.98;;;-0.30;99.90;;;;;;4972665;28;20550;-64
2022/01/12 06:27:50;;;;;;;18.75;12.70;;;-0.30;99.90;;;;;;4964227;28;20062;-64
2022/01/12 06:32:59;;;;;;;20.80;12.38;;;-0.40;99.90;;;;;;4969355;28;20038;-64
2022/01/12 06:35:25;;;;;;;21.10;14.55;;;-0.40;99.90;;;;;;4964316;28;20031;-64
2022/01/12 06:37:52;;;;;;;17.92;13.38;;;-0.40;99.90;;;;;;4961503;28;20022;-64
2022/01/12 06:40:18;;;;;;;20.30;14.88;;;-0.40;99.90;;;;;;4966715;28;20117;-64
2022/01/12 06:42:45;;;;;;;20.95;13.68;;;-0.40;99.90;;;;;;4957550;28;20490;-64
2022/01/12 06:45:11;;;;;;;18.90;13.55;;;-0.30;99.90;;;;;;4956118;28;20030;-64
2022/01/12 06:47:37;;;;;;;25.40;14.50;;;-0.40;99.90;;;;;;4967791;28;20914;-65
2022/01/12 06:50:09;;;;;;;18.45;13.98;;;-0.40;99.90;;;;;;4965971;28;20028;-66
2022/01/12 06:52:35;;;;;;;19.42;13.20;;;-0.40;99.90;;;;;;4961861;28;20490;-67
2022/01/12 06:55:01;;;;;;;21.70;13.23;;;-0.40;99.90;;;;;;4970760;28;20106;-64
2022/01/12 06:57:27;;;;;;;18.02;12.73;;;-0.40;99.90;;;;;;4978033;28;20219;-64
2022/01/12 06:59:53;;;;;;;16.83;12.80;;;-0.40;99.90;;;;;;4983429;28;20113;-64
2022/01/12 07:02:18;;;;;;;16.48;12.05;;;-0.40;99.90;;;;;;4966489;28;20035;-63
2022/01/12 07:04:44;;;;;;;18.05;13.13;;;-0.40;99.90;;;;;;4979181;28;20028;-64
2022/01/12 07:07:10;;;;;;;18.63;12.15;;;-0.30;99.90;;;;;;4961759;28;20046;-60
2022/01/12 07:09:36;;;;;;;16.50;11.98;;;-0.30;99.90;;;;;;4968837;28;20032;-60
2022/01/12 07:12:01;;;;;;;17.08;12.93;;;-0.20;99.90;;;;;;4966847;28;20384;-61
2022/01/12 07:14:27;;;;;;;16.00;12.55;;;-0.20;99.90;;;;;;4962739;28;20515;-60
2022/01/12 07:16:53;;;;;;;18.98;13.68;;;-0.20;99.90;;;;;;4963941;28;20122;-60
2022/01/12 07:19:18;;;;;;;20.63;12.98;;;-0.20;99.90;;;;;;4956413;28;20081;-60
2022/01/12 07:21:44;;;;;;;16.15;12.57;;;-0.20;99.90;;;;;;4977419;28;20091;-60
2022/01/12 07:24:10;;;;;;;18.67;12.30;;;-0.20;99.90;;;;;;4972688;28;20027;-60
2022/01/12 07:26:35;;;;;;;18.52;13.30;;;-0.20;99.90;;;;;;4966709;28;20027;-60
2022/01/12 07:29:01;;;;;;;17.85;12.75;;;-0.20;99.90;;;;;;4971088;28;20031;-60
2022/01/12 07:31:27;;;;;;;16.85;12.82;;;-0.20;99.90;;;;;;4963640;28;20121;-60
2022/01/12 07:33:54;;;;;;;15.38;12.02;;;-0.20;99.90;;;;;;4969316;28;20498;-60
2022/01/12 07:36:20;;;;;;;19.48;13.63;;;-0.20;99.90;;;;;;4967869;28;20175;-59
2022/01/12 07:38:49;;;;;;;22.55;14.65;;;-0.20;99.90;;;;;;4967794;28;20030;-60
2022/01/12 07:41:15;;;;;;;16.23;12.43;;;-0.20;99.90;;;;;;4965979;28;20077;-59
2022/01/12 07:43:43;;;;;;;17.85;13.30;;;-0.20;99.90;;;;;;4963564;28;20101;-60
2022/01/12 07:46:15;;;;;;;20.48;14.15;;;-0.10;99.90;;;;;;4965846;28;20030;-61
2022/01/12 07:48:40;;;;;;;18.30;13.63;;;-0.20;99.90;;;;;;4965211;28;20027;-59
2022/01/12 07:51:08;;;;;;;14.82;13.23;;;-0.10;99.90;;;;;;4961081;28;20027;-60
2022/01/12 07:53:34;;;;;;;17.83;12.75;;;-0.10;99.90;;;;;;4968356;28;20041;-60
2022/01/12 07:56:14;;;;;;;21.27;13.82;;;-0.10;99.90;;;;;;4962455;28;20034;-60
2022/01/12 07:58:45;;;;;;;16.20;12.80;;;-0.10;99.90;;;;;;4967219;28;20065;-60
2022/01/12 08:01:14;;;;;;;17.48;13.27;;;-0.10;99.90;;;;;;4978004;28;20056;-60
2022/01/12 08:03:50;;;;;;;22.95;13.30;;;-0.10;99.90;;;;;;4972389;28;20042;-60
2022/01/12 08:06:16;;;;;;;18.75;12.20;;;-0.10;99.90;;;;;;4963268;28;20019;-60
2022/01/12 08:08:42;;;;;;;18.88;14.32;;;-0.10;99.90;;;;;;4966061;28;20031;-60
2022/01/12 08:11:07;;;;;;;19.38;13.07;;;0.00;99.90;;;;;;4962271;28;20019;-60
2022/01/12 08:13:33;;;;;;;16.92;13.02;;;0.00;99.90;;;;;;4968071;28;20035;-60
2022/01/12 08:15:59;;;;;;;19.80;14.02;;;0.00;99.90;;;;;;4969708;28;20031;-60
2022/01/12 08:18:25;;;;;;;17.83;13.88;;;0.10;99.90;;;;;;4960348;28;20127;-60
2022/01/12 08:20:51;;;;;;;21.08;13.27;;;0.20;99.90;;;;;;4965254;28;20110;-60
2022/01/12 08:23:17;;;;;;;16.20;13.20;;;0.20;99.90;;;;;;4962506;28;20031;-59
2022/01/12 08:25:42;;;;;;;19.70;13.80;;;0.30;99.90;;;;;;4976312;28;20061;-60
2022/01/12 08:28:08;;;;;;;16.33;12.60;;;0.20;99.90;;;;;;4972534;28;20445;-59
2022/01/12 08:30:35;;;;;;;16.80;12.30;;;0.30;99.90;;;;;;4971861;28;20054;-60
2022/01/12 08:33:05;;;;;;;16.63;12.25;;;0.30;99.90;;;;;;4972352;28;20015;-60
2022/01/12 08:35:33;;;;;;;17.67;12.40;;;0.30;99.90;;;;;;4961256;28;20495;-60
2022/01/12 08:37:59;;;;;;;16.05;12.15;;;0.30;99.90;;;;;;4972632;28;20039;-60
2022/01/12 08:40:29;;;;;;;15.32;12.57;;;0.40;99.90;;;;;;4975005;28;20042;-61
2022/01/12 08:42:55;;;;;;;17.13;12.50;;;0.50;99.90;;;;;;4973958;28;20118;-60
2022/01/12 08:45:21;;;;;;;15.80;13.05;;;0.60;99.90;;;;;;4969905;28;20109;-60
2022/01/12 08:47:47;;;;;;;14.15;10.80;;;0.70;99.90;;;;;;4970290;28;20031;-60
2022/01/12 08:50:13;;;;;;;14.77;11.80;;;0.90;99.90;;;;;;4970861;28;20031;-60
2022/01/12 08:52:45;;;;;;;14.85;10.90;;;1.00;99.90;;;;;;4972003;28;20049;-60
2022/01/12 08:55:12;;;;;;;13.73;10.98;;;1.20;99.90;;;;;;4962810;28;20031;-60
2022/01/12 08:57:37;;;;;;;14.77;12.00;;;1.50;99.90;;;;;;4972118;28;20046;-60
2022/01/12 09:00:06;;;;;;;13.20;10.48;;;1.80;99.90;;;;;;4970026;28;20023;-60
2022/01/12 09:02:31;;;;;;;13.77;11.55;;;2.00;99.90;;;;;;4966777;28;20034;-60
2022/01/12 09:04:57;;;;;;;12.55;10.68;;;2.20;99.90;;;;;;4977598;28;20046;-59
2022/01/12 09:07:22;;;;;;;14.23;10.32;;;2.20;99.90;;;;;;4974530;28;20494;-59
2022/01/12 09:09:48;;;;;;;15.88;10.50;;;2.20;99.90;;;;;;4965654;28;20035;-60
2022/01/12 09:12:14;;;;;;;12.25;10.95;;;2.10;99.90;;;;;;4968056;28;20479;-60
2022/01/12 09:14:40;;;;;;;14.43;11.10;;;2.10;99.90;;;;;;4967402;28;20090;-60
2022/01/12 09:17:15;;;;;;;15.25;10.85;;;2.00;99.90;;;;;;4974055;28;20038;-60
2022/01/12 09:19:41;;;;;;;12.52;10.85;;;2.00;99.90;;;;;;4970975;28;20028;-60
2022/01/12 09:22:06;;;;;;;14.82;10.75;;;1.90;99.90;;;;;;4975230;28;20535;-61
2022/01/12 09:24:42;;;;;;;11.70;10.50;;;1.80;99.90;;;;;;4962599;28;20562;-59
2022/01/12 09:27:08;;;;;;;13.25;10.52;;;1.70;99.90;;;;;;4962918;28;20541;-60
2022/01/12 09:29:34;;;;;;;13.60;10.77;;;1.80;99.90;;;;;;4968746;28;20069;-60
2022/01/12 09:32:00;;;;;;;13.13;11.02;;;1.80;99.90;;;;;;4976594;28;20487;-60
2022/01/12 09:34:26;;;;;;;11.75;10.60;;;2.00;99.90;;;;;;4970430;28;20046;-60
2022/01/12 09:36:52;;;;;;;11.70;10.45;;;2.20;99.90;;;;;;4971920;28;20125;-60
2022/01/12 09:39:17;;;;;;;10.98;9.77;;;2.50;99.90;;;;;;4967120;28;20030;-60
2022/01/12 09:41:43;;;;;;;9.75;8.55;;;2.80;99.90;;;;;;4967907;28;20018;-60
2022/01/12 09:44:09;;;;;;;10.75;9.20;;;3.10;99.90;;;;;;4974436;28;20038;-60
2022/01/12 09:46:34;;;;;;;11.50;8.68;;;3.30;99.90;;;;;;4973883;28;20035;-60
2022/01/12 09:49:02;;;;;;;12.38;8.65;;;3.40;99.90;;;;;;4966990;28;20023;-60
2022/01/12 09:51:28;;;;;;;11.57;9.05;;;3.50;99.40;;;;;;4959459;28;20031;-59
2022/01/12 09:53:54;;;;;;;10.70;8.88;;;3.50;99.10;;;;;;4970400;28;20027;-60
2022/01/12 09:56:24;;;;;;;11.18;8.43;;;3.70;98.30;;;;;;4967573;28;20031;-61
2022/01/12 09:58:53;;;;;;;10.60;8.70;;;3.80;98.10;;;;;;4967117;28;20089;-60
2022/01/12 10:01:40;;;;;;;9.57;8.57;;;4.00;97.90;;;;;;4961701;28;20031;-60
2022/01/12 10:04:10;;;;;;;11.98;8.85;;;4.30;96.40;;;;;;4967291;28;20027;-59
2022/01/12 10:06:41;;;;;;;13.45;8.75;;;4.70;96.00;;;;;;4970637;28;20114;-60
2022/01/12 10:09:08;;;;;;;11.68;9.80;;;5.10;94.10;;;;;;4975246;28;20054;-60
2022/01/12 10:11:34;;;;;;;12.23;7.85;;;5.40;94.10;;;;;;4975004;28;20050;-60
2022/01/12 10:14:02;;;;;;;8.55;7.75;;;5.70;92.70;;;;;;4963039;28;20125;-60
2022/01/12 10:16:28;;;;;;;9.65;8.65;;;6.30;92.60;;;;;;4968255;28;20503;-60
2022/01/12 10:18:58;;;;;;;9.88;8.88;;;7.00;92.30;;;;;;4967739;28;20605;-59
2022/01/12 10:21:35;;;;;;;9.18;8.27;;;7.80;91.40;;;;;;4968563;28;20440;-60
2022/01/12 10:24:05;;;;;;;9.13;8.20;;;8.30;84.70;;;;;;4971770;28;20019;-60
2022/01/12 10:26:39;;;;;;;8.82;7.95;;;8.60;82.60;;;;;;4962933;28;20043;-60
2022/01/12 10:29:12;;;;;;;9.45;8.23;;;8.60;80.70;;;;;;4964288;28;20118;-60
2022/01/12 10:31:51;;;;;;;7.50;6.50;;;8.70;80.40;;;;;;4960479;28;20046;-60
2022/01/12 10:34:19;;;;;;;8.52;7.63;;;8.30;79.50;;;;;;4968348;28;20031;-60
2022/01/12 10:36:46;;;;;;;8.60;7.13;;;8.00;80.00;;;;;;4972797;28;20026;-60
2022/01/12 10:39:14;;;;;;;17.10;8.63;;;7.70;82.40;;;;;;4979656;28;20486;-60
2022/01/12 10:42:39;;;;;;;11.20;8.23;;;7.30;83.40;;;;;;4968332;28;20030;-59
2022/01/12 10:45:06;;;;;;;11.35;9.60;;;7.00;85.20;;;;;;4975685;28;20049;-60
2022/01/12 10:47:32;;;;;;;8.27;7.47;;;6.80;86.30;;;;;;4968341;28;20081;-60
2022/01/12 10:50:08;;;;;;;9.98;7.03;;;6.60;86.30;;;;;;4976291;28;20034;-60
2022/01/12 10:52:34;;;;;;;9.20;7.28;;;6.70;87.50;;;;;;4968971;28;20058;-60
2022/01/12 10:55:10;;;;;;;8.23;7.43;;;6.80;88.30;;;;;;4963057;28;20038;-60
2022/01/12 10:57:38;;;;;;;8.77;7.97;;;6.90;85.70;;;;;;4964125;28;20034;-60
2022/01/12 11:03:10;;;;;;;9.18;7.10;;;7.10;86.80;;;;;;4950162;28;20044;-65
2022/01/12 11:05:35;;;;;;;8.23;7.15;;;7.30;86.70;;;;;;4960690;28;20038;-65
2022/01/12 11:08:11;;;;;;;8.90;7.55;;;7.20;86.30;;;;;;4957764;28;20029;-64
2022/01/12 11:10:40;;;;;;;10.05;7.55;;;7.30;85.60;;;;;;4967246;28;20078;-64
2022/01/12 11:13:06;;;;;;;9.10;7.55;;;7.30;85.50;;;;;;4958764;28;20054;-65
2022/01/12 11:15:33;;;;;;;7.60;6.68;;;7.60;88.80;;;;;;4970913;28;20517;-65
2022/01/12 11:17:59;;;;;;;7.00;6.30;;;7.60;83.60;;;;;;4969370;28;20601;-65
2022/01/12 11:20:26;;;;;;;10.88;6.50;;;7.60;84.20;;;;;;4958732;28;20035;-64
2022/01/12 11:22:58;;;;;;;7.13;5.53;;;7.70;83.80;;;;;;4957802;28;20562;-65
2022/01/12 11:25:44;;;;;;;8.45;6.88;;;8.10;84.20;;;;;;4958247;28;20054;-65
2022/01/12 11:28:21;;;;;;;8.48;7.60;;;8.40;83.30;;;;;;4968248;28;20078;-64
2022/01/12 11:30:50;;;;;;;9.48;8.50;;;8.60;80.60;;;;;;4963398;28;20049;-64
2022/01/12 11:33:20;;;;;;;9.35;8.43;;;8.60;83.70;;;;;;4958718;28;20426;-64
2022/01/12 11:36:08;;;;;;;;;;;;;;;;;;;;;
2022/01/12 11:38:35;;;;;;;8.20;7.40;;;9.00;80.60;;;;;;4960493;28;20501;-65
2022/01/12 11:41:10;;;;;;;8.55;7.22;;;9.20;79.20;;;;;;4958900;28;20517;-65
2022/01/12 11:43:50;;;;;;;8.10;6.60;;;9.40;79.30;;;;;;4975404;28;20027;-65
2022/01/12 11:46:24;;;;;;;7.25;6.53;;;9.80;78.30;;;;;;4966714;28;20919;-65
2022/01/12 11:48:56;;;;;;;7.57;6.78;;;9.90;77.70;;;;;;4973044;28;20035;-65
2022/01/12 11:51:42;;;;;;;6.97;6.28;;;10.30;76.20;;;;;;4975083;28;20042;-65
2022/01/12 11:54:14;;;;;;;11.38;10.38;;;10.30;72.80;;;;;;4971223;28;20015;-67
2022/01/12 11:56:57;;;;;;;7.82;6.85;;;10.20;74.20;;;;;;4977072;28;20019;-65
2022/01/12 11:59:26;;;;;;;6.85;6.25;;;10.10;77.00;;;;;;4969016;28;20034;-65
2022/01/12 12:02:14;;;;;;;7.70;7.00;;;10.00;74.40;;;;;;4975346;28;20033;-65
2022/01/12 12:04:54;;;;;;;8.80;8.00;;;9.80;76.00;;;;;;4965319;28;20036;-65
2022/01/12 12:07:20;;;;;;;9.15;7.68;;;9.90;75.00;;;;;;4967138;28;20031;-66
2022/01/12 12:09:54;;;;;;;10.25;8.23;;;10.00;79.00;;;;;;4968507;28;20077;-65
2022/01/12 12:12:28;;;;;;;7.63;6.90;;;10.10;73.30;;;;;;4962037;28;20085;-66
2022/01/12 12:15:14;;;;;;;8.60;7.70;;;9.60;73.60;;;;;;4970699;28;20143;-65
2022/01/12 12:17:41;;;;;;;8.50;7.60;;;9.50;77.40;;;;;;4952889;28;20109;-65
2022/01/12 12:20:18;;;;;;;8.50;7.60;;;9.40;80.60;;;;;;4974597;28;20027;-65
2022/01/12 12:22:46;;;;;;;8.15;7.45;;;9.50;75.80;;;;;;4975588;28;20084;-65
2022/01/12 12:25:25;;;;;;;7.85;7.05;;;9.50;78.00;;;;;;4966229;28;20029;-65
2022/01/12 12:27:57;;;;;;;8.95;8.05;;;9.70;79.40;;;;;;4974198;28;20027;-65
2022/01/12 12:30:25;;;;;;;8.43;7.63;;;9.40;76.00;;;;;;4969266;28;20054;-65
2022/01/12 12:33:12;;;;;;;8.90;6.85;;;9.40;79.00;;;;;;4978757;28;20422;-65
2022/01/12 12:35:45;;;;;;;8.43;7.47;;;9.20;78.10;;;;;;4966924;28;20027;-65
2022/01/12 12:38:13;;;;;;;8.15;7.03;;;9.10;78.90;;;;;;4966573;28;20117;-65
2022/01/12 12:40:48;;;;;;;7.70;6.78;;;8.90;78.90;;;;;;4980522;28;20502;-65
2022/01/12 12:43:27;;;;;;;8.25;7.20;;;8.60;78.70;;;;;;4967789;28;20031;-65
2022/01/12 12:46:16;;;;;;;8.13;7.35;;;8.40;80.80;;;;;;4967298;28;20118;-65
2022/01/12 12:48:43;;;;;;;7.90;7.13;;;8.40;82.60;;;;;;4971937;28;20531;-65
2022/01/12 12:51:14;;;;;;;8.40;6.80;;;8.20;80.00;;;;;;4970680;28;20082;-65
2022/01/12 12:53:46;;;;;;;8.33;7.13;;;8.10;80.80;;;;;;4972207;28;20015;-65
2022/01/12 12:56:19;;;;;;;7.00;6.30;;;7.90;80.00;;;;;;4971950;28;20021;-65
2022/01/12 12:58:52;;;;;;;8.18;7.45;;;7.40;81.80;;;;;;4970789;28;20130;-64
2022/01/12 13:01:19;;;;;;;7.85;7.05;;;7.10;83.10;;;;;;4972729;28;20035;-65
2022/01/12 13:03:54;;;;;;;8.30;7.35;;;6.90;83.80;;;;;;4965893;28;20620;-65
2022/01/12 13:06:38;;;;;;;8.70;7.88;;;7.00;84.70;;;;;;4972245;28;20478;-65
2022/01/12 13:09:08;;;;;;;7.97;7.28;;;7.00;85.90;;;;;;4966214;28;20031;-64
2022/01/12 13:11:39;;;;;;;8.32;7.43;;;7.00;87.10;;;;;;4967499;28;20062;-65
2022/01/12 13:14:08;;;;;;;7.28;6.57;;;7.00;84.40;;;;;;4970295;28;20577;-65
2022/01/12 13:16:42;;;;;;;10.18;7.70;;;6.90;83.90;;;;;;4959419;28;20117;-64
2022/01/12 13:19:21;;;;;;;7.78;7.07;;;6.80;84.80;;;;;;4963536;28;20089;-64
2022/01/12 13:21:46;;;;;;;10.50;7.72;;;6.80;84.30;;;;;;4971490;28;20082;-65
2022/01/12 13:24:13;;;;;;;9.15;8.25;;;6.70;85.70;;;;;;4971249;28;20023;-64
2022/01/12 13:26:38;;;;;;;7.82;7.13;;;6.70;85.50;;;;;;4968968;28;20023;-65
2022/01/12 13:29:07;;;;;;;7.43;6.72;;;6.60;86.30;;;;;;4966457;28;20035;-64
2022/01/12 13:31:36;;;;;;;11.25;7.28;;;6.50;85.70;;;;;;4962412;28;20113;-64
2022/01/12 13:34:04;;;;;;;8.77;7.80;;;6.30;85.20;;;;;;4968036;28;20103;-65
2022/01/12 13:36:32;;;;;;;8.40;7.55;;;6.10;85.50;;;;;;4968499;28;20034;-64
2022/01/12 13:39:05;;;;;;;9.00;8.10;;;5.80;88.00;;;;;;4970569;28;20478;-64
2022/01/12 13:41:36;;;;;;;9.65;8.68;;;5.70;88.50;;;;;;4969045;28;20124;-65
2022/01/12 13:44:06;;;;;;;;;;;5.60;89.30;;;;;;4970673;28;20027;-65
2022/01/12 13:46:39;;;;;;;10.13;7.35;;;5.50;89.70;;;;;;4968347;28;19921;-64
2022/01/12 13:49:21;;;;;;;8.98;8.07;;;5.50;88.40;;;;;;4961655;28;20019;-64
2022/01/12 13:51:55;;;;;;;7.60;6.90;;;5.40;88.80;;;;;;4956731;28;20047;-65
2022/01/12 13:54:21;;;;;;;8.35;7.63;;;5.40;88.80;;;;;;4967735;28;20026;-66
2022/01/12 13:56:51;;;;;;;9.07;8.18;;;5.30;88.90;;;;;;4979159;28;20433;-67
2022/01/12 13:59:18;;;;;;;8.82;7.93;;;5.10;89.40;;;;;;4965760;28;20027;-67
2022/01/12 14:01:44;;;;;;;8.77;7.88;;;5.00;90.10;;;;;;4971217;28;20031;-67
2022/01/12 14:04:18;;;;;;;11.32;10.13;;;4.90;90.40;;;;;;4967199;28;20043;-67
2022/01/12 14:06:46;;;;;;;9.23;8.32;;;4.80;90.60;;;;;;4964517;28;20031;-67
2022/01/12 14:09:43;;;;;;;8.82;8.02;;;4.70;90.70;;;;;;4973303;28;20030;-65
2022/01/12 14:12:16;;;;;;;8.40;7.60;;;4.60;91.20;;;;;;4968451;28;20027;-65
2022/01/12 14:14:57;;;;;;;8.82;7.97;;;4.50;91.00;;;;;;4967932;28;20545;-65
2022/01/12 14:17:31;;;;;;;9.10;7.75;;;4.50;91.10;;;;;;4966028;28;20126;-65
2022/01/12 14:20:03;;;;;;;8.65;7.30;;;4.40;91.00;;;;;;4967756;28;20621;-65
2022/01/12 14:22:29;;;;;;;8.60;7.70;;;4.30;91.40;;;;;;4965613;28;20034;-64